• Join FlightAware (Why Join?)
  • Login
  • US Flag 
11:15PM EDT


 

Airport Tracker/Info


-or-


 

Live Flight TrackerFlight Track Log ✈ N569TA ✈ 28-Apr-2013 ✈ KOSH - KRVS

Flight Track Log - Related Links

Times and Time Zones

All times are in EDT time to prevent confusion due to time zone crossing. See the N569TA flight status page for this flight to view local times or setup timezone preferences in your user account.

Time Position Orientation Groundspeed Altitude Reporting Facility
EDT Latitude Longitude Course Direction KTS MPH feet Rate Location/Type
09:09AM 44.0000 -88.6000 216° Southwest 215 247 1,700  Level KMKE
09:09AM 43.9833 -88.6167 216° Southwest 198 228 2,300 2,520 Climbing KMKE
09:12AM 43.8503 -88.7525 216° Southwest 239 275 8,800 2,460 Climbing Chicago Center
09:13AM 43.7864 -88.8158 216° Southwest 270 311 11,000 2,040 Climbing Chicago Center
09:14AM 43.7208 -88.8858 218° Southwest 293 337 13,100 2,040 Climbing Chicago Center
09:15AM 43.6550 -88.9567 218° Southwest 299 344 15,300 2,040 Climbing Chicago Center
09:16AM 43.5881 -89.0272 217° Southwest 302 348 17,400 2,220 Climbing Chicago Center
09:17AM 43.5094 -89.1125 218° Southwest 307 353 19,900 2,040 Climbing Chicago Center
09:18AM 43.4411 -89.1836 217° Southwest 309 356 21,600 1,500 Climbing Chicago Center
09:19AM 43.3717 -89.2581 218° Southwest 316 364 23,100 1,440 Climbing Chicago Center
09:20AM 43.2986 -89.3347 217° Southwest 329 379 24,600 1,440 Climbing Chicago Center
09:21AM 43.2244 -89.4117 217° Southwest 334 384 26,100 1,380 Climbing Chicago Center
09:22AM 43.1489 -89.4894 217° Southwest 339 390 27,500 1,500 Climbing Chicago Center
09:23AM 43.0606 -89.5806 217° Southwest 341 392 29,200 1,560 Climbing Chicago Center
09:24AM 42.9847 -89.6578 217° Southwest 339 390 30,700 1,320 Climbing Chicago Center
09:25AM 42.9103 -89.7367 218° Southwest 339 390 32,000 1,200 Climbing Chicago Center
09:26AM 42.8344 -89.8131 216° Southwest 339 390 33,200 1,140 Climbing Chicago Center
09:27AM 42.7594 -89.8914 217° Southwest 341 392 34,400 1,200 Climbing Chicago Center
09:28AM 42.6761 -89.9786 218° Southwest 340 391 35,700 1,200 Climbing Chicago Center
09:29AM 42.6022 -90.0542 217° Southwest 337 388 36,900 1,140 Climbing Chicago Center
09:30AM 42.5292 -90.1281 217° Southwest 332 382 38,100 1,080 Climbing Chicago Center
09:31AM 42.4578 -90.2003 217° Southwest 325 374 39,200 900 Climbing Chicago Center
09:32AM 42.3894 -90.2692 217° Southwest 313 360 40,000 360 Climbing Chicago Center
09:33AM 42.3197 -90.3397 217° Southwest 314 361 40,000  Level Chicago Center
09:34AM 42.2453 -90.4131 216° Southwest 329 379 40,000  Level Chicago Center
09:35AM 42.1531 -90.5069 217° Southwest 345 397 40,000  Level Chicago Center
09:36AM 42.0736 -90.5864 217° Southwest 354 407 40,000  Level Chicago Center
09:37AM 41.9911 -90.6706 217° Southwest 369 425 40,000  Level Chicago Center
09:38AM 41.9075 -90.7542 217° Southwest 375 432 40,000  Level Chicago Center
09:39AM 41.8242 -90.8350 216° Southwest 371 427 40,000  Level Chicago Center
09:41AM 41.7386 -90.9208 217° Southwest 383 441 40,000  Level Chicago Center
09:42AM 41.6367 -91.0200 216° Southwest 380 437 40,000  Level Chicago Center
09:43AM 41.5500 -91.1042 216° Southwest 386 444 40,000  Level Chicago Center
09:44AM 41.4736 -91.1786 216° Southwest 386 444 40,000  Level Chicago Center
09:45AM 41.3703 -91.2797 216° Southwest 385 443 40,000  Level Chicago Center
09:46AM 41.2914 -91.3561 216° Southwest 387 445 40,000 -60 Level Chicago Center
09:47AM 41.1961 -91.4483 216° Southwest 389 448 39,900  Descending Chicago Center
09:48AM 41.1097 -91.5319 216° Southwest 387 445 40,000  Climbing Chicago Center
09:49AM 41.0225 -91.6164 216° Southwest 388 447 40,000  Level Chicago Center
09:50AM 40.9222 -91.7108 215° Southwest 389 448 40,000  Level Chicago Center
09:51AM 40.8344 -91.7950 216° Southwest 392 451 40,000  Level Chicago Center
09:52AM 40.7467 -91.8781 216° Southwest 391 450 40,000  Level Chicago Center
09:53AM 40.6586 -91.9606 215° Southwest 391 450 40,000  Level Chicago Center
09:54AM 40.5700 -92.0442 216° Southwest 392 451 40,000  Level Chicago Center
09:55AM 40.4814 -92.1269 215° Southwest 390 449 40,000  Level Kansas City Center
09:56AM 40.3919 -92.2100 215° Southwest 392 451 40,000  Level Kansas City Center
09:57AM 40.3028 -92.2933 215° Southwest 394 453 40,000  Level Kansas City Center
09:58AM 40.2086 -92.3808 215° Southwest 391 450 40,000  Level Kansas City Center
09:59AM 40.1100 -92.4742 216° Southwest 391 450 40,000  Level Kansas City Center
10:00AM 40.0164 -92.5603 215° Southwest 391 450 40,000  Level Kansas City Center
10:01AM 39.9261 -92.6414 215° Southwest 393 452 40,000  Level Kansas City Center
10:02AM 39.8375 -92.7239 216° Southwest 393 452 40,000  Level Kansas City Center
10:03AM 39.7472 -92.8033 214° Southwest 394 453 40,000  Level Kansas City Center
10:04AM 39.6569 -92.8842 215° Southwest 394 453 40,000  Level Kansas City Center
10:05AM 39.5692 -92.9672 216° Southwest 393 452 40,000  Level Kansas City Center
10:06AM 39.4783 -93.0506 215° Southwest 397 457 40,000  Level Kansas City Center
10:07AM 39.3872 -93.1311 214° Southwest 399 459 40,000  Level Kansas City Center
10:08AM 39.2789 -93.2303 215° Southwest 400 460 40,000  Level Kansas City Center
10:09AM 39.1886 -93.3111 215° Southwest 398 458 40,000  Level Kansas City Center
10:10AM 39.0989 -93.3919 215° Southwest 397 457 40,000  Level Kansas City Center
10:11AM 39.0022 -93.4786 215° Southwest 396 456 40,000  Level Kansas City Center
10:12AM 38.9114 -93.5592 215° Southwest 396 456 40,000  Level Kansas City Center
10:13AM 38.8208 -93.6378 214° Southwest 394 453 40,000  Level Kansas City Center
10:14AM 38.7303 -93.7167 214° Southwest 394 453 40,000  Level Kansas City Center
10:15AM 38.6361 -93.8003 215° Southwest 396 456 40,000  Level Kansas City Center
10:16AM 38.5511 -93.8756 215° Southwest 390 449 40,000  Level Kansas City Center
10:17AM 38.4647 -93.9522 215° Southwest 383 441 40,000 -300 Level Kansas City Center
10:18AM 38.3556 -94.0461 214° Southwest 387 445 39,400 -960 Descending Kansas City Center
10:19AM 38.2644 -94.1253 214° Southwest 395 455 38,100 -1,260 Descending Kansas City Center
10:20AM 38.1697 -94.2064 214° Southwest 410 472 36,900 -1,320 Descending Kansas City Center
10:21AM 38.0775 -94.2869 215° Southwest 417 480 35,500 -1,680 Descending Kansas City Center
10:23AM 37.9689 -94.3794 214° Southwest 418 481 33,500 -1,860 Descending Kansas City Center
10:24AM 37.8717 -94.4614 214° Southwest 431 496 31,800 -1,860 Descending Kansas City Center
10:25AM 37.7589 -94.5592 214° Southwest 438 504 29,700 -1,980 Descending Kansas City Center
10:26AM 37.6600 -94.6428 214° Southwest 432 497 27,800 -1,860 Descending Kansas City Center
10:27AM 37.5625 -94.7247 214° Southwest 423 487 26,000 -1,740 Descending Kansas City Center
10:28AM 37.4689 -94.8050 214° Southwest 410 472 24,300 -1,680 Descending Kansas City Center
10:29AM 37.3789 -94.8831 215° Southwest 397 457 22,600 -1,680 Descending Kansas City Center
10:30AM 37.2889 -94.9550 212° Southwest 386 444 20,900 -1,680 Descending Kansas City Center
10:31AM 37.2022 -95.0283 214° Southwest 379 436 19,200 -1,620 Descending Kansas City Center
10:32AM 37.1153 -95.1000 213° Southwest 375 432 17,600 -1,680 Descending Kansas City Center
10:33AM 37.0139 -95.1844 214° Southwest 366 421 15,800 -1,680 Descending Kansas City Center
10:34AM 36.9328 -95.2517 214° Southwest 354 407 14,200 -1,560 Descending Kansas City Center
10:34AM 36.8742 -95.3014 214° Southwest 340 391 13,200 -1,260 Descending Kansas City Center
10:35AM 36.8533 -95.3164 210° Southwest 345 397 12,900 -1,140 Descending Kansas City Center
10:35AM 36.8153 -95.3486 214° Southwest 330 380 12,300 -1,320 Descending Kansas City Center
10:36AM 36.7772 -95.3800 213° Southwest 338 389 11,600 -1,380 Descending Kansas City Center
10:36AM 36.7356 -95.4169 215° Southwest 323 372 10,800 -1,200 Descending Kansas City Center
10:37AM 36.7028 -95.4414 211° Southwest 330 380 10,400 -840 Descending Kansas City Center
10:37AM 36.6531 -95.4831 214° Southwest 327 376 10,000 -420 Descending Kansas City Center
10:38AM 36.6275 -95.5039 213° Southwest 327 376 10,000  Level Kansas City Center
10:38AM 36.5789 -95.5453 214° Southwest 321 369 10,000  Level Kansas City Center
10:39AM 36.5550 -95.5631 211° Southwest 320 368 10,000  Level Kansas City Center
10:39AM 36.5064 -95.6044 214° Southwest 309 356 10,000  Level Kansas City Center
10:40AM 36.4694 -95.6328 212° Southwest 313 360 10,000  Level Kansas City Center
10:40AM 36.4361 -95.6631 216° Southwest 311 358 10,000 -420 Level Kansas City Center
10:41AM 36.3975 -95.6883 208° Southwest 310 357 9,600 -1,140 Descending Kansas City Center
10:41AM 36.3628 -95.7144 211° Southwest 298 343 8,900 -1,380 Descending Kansas City Center
10:42AM 36.3306 -95.7450 217° Southwest 298 343 8,200 -1,620 Descending Kansas City Center
10:42AM 36.3011 -95.7769 221° Southwest 285 328 7,300 -1,800 Descending Kansas City Center
10:43AM 36.2703 -95.8042 215° Southwest 283 326 6,400 -1,680 Descending Kansas City Center
10:43AM 36.2411 -95.8342 220° Southwest 269 310 5,600 -1,680 Descending Kansas City Center
10:44AM 36.2122 -95.8611 217° Southwest 272 313 4,700 -1,620 Descending Kansas City Center
10:44AM 36.1850 -95.8906 221° Southwest 245 282 4,000 -1,380 Descending Kansas City Center
10:45AM 36.1617 -95.9136 219° Southwest 249 287 3,300 -1,440 Descending Kansas City Center
10:45AM 36.1369 -95.9408 222° Southwest 222 255 2,600 -1,380 Descending Kansas City Center
10:46AM 36.1069 -95.9672 215° Southwest 221 254 1,900 -1,020 Descending Kansas City Center
10:46AM 36.0914 -95.9725 195° South 172 198 1,600 -840 Descending Kansas City Center
10:47AM 36.0672 -95.9778 190° South 172 198 1,100 -360 Descending Kansas City Center
10:48AM 36.0344 -95.9869 193° South 163 188 1,000 -120 Descending Kansas City Center
10:50AM 36.0333 -95.9833 North  Level FlightAware Approximate
10:57AM 36.0396 -95.9846 North  Level Estimated